createdAt,value
2023-02-27T00:02:52.322Z,95842.00
2023-02-27T00:08:06.129Z,95837.06
2023-02-27T00:13:08.457Z,95850.94
2023-02-27T00:18:11.706Z,95838.34
2023-02-27T00:23:15.714Z,95855.72
2023-02-27T00:28:18.070Z,95860.34
2023-02-27T00:33:21.189Z,95850.75
2023-02-27T00:38:23.642Z,95850.34
2023-02-27T00:43:26.574Z,95851.41
2023-02-27T00:48:29.755Z,95847.41
2023-02-27T00:53:32.055Z,95861.19
2023-02-27T00:58:34.735Z,95855.56
2023-02-27T01:03:36.994Z,95864.69
2023-02-27T01:08:39.350Z,95855.81
2023-02-27T01:13:42.024Z,95858.72
2023-02-27T01:18:45.139Z,95854.72
2023-02-27T01:23:48.253Z,95849.09
2023-02-27T01:28:51.340Z,95859.25
2023-02-27T01:33:53.948Z,95851.97
2023-02-27T01:38:56.942Z,95847.38
2023-02-27T01:44:00.168Z,95850.22
2023-02-27T01:49:02.563Z,95849.69
2023-02-27T01:54:05.217Z,95854.75
2023-02-27T01:59:07.840Z,95850.31
2023-02-27T02:04:10.230Z,95856.94
2023-02-27T02:09:12.871Z,95868.47
2023-02-27T02:14:21.062Z,95850.22
2023-02-27T02:19:23.483Z,95850.34
2023-02-27T02:24:25.911Z,95851.63
2023-02-27T02:29:28.316Z,95861.06
2023-02-27T02:34:30.673Z,95855.00
2023-02-27T02:39:34.054Z,95845.75
2023-02-27T02:44:36.864Z,95836.44
2023-02-27T02:49:39.274Z,95847.31
2023-02-27T02:54:41.867Z,95836.38
2023-02-27T02:59:44.809Z,95840.34
2023-02-27T03:04:47.939Z,95857.66
2023-02-27T03:09:51.271Z,95856.66
2023-02-27T03:14:53.618Z,95859.47
2023-02-27T03:19:56.100Z,95854.41
2023-02-27T03:24:59.165Z,95856.66
2023-02-27T03:30:01.505Z,95855.41
2023-02-27T03:35:04.042Z,95858.03
2023-02-27T03:40:07.647Z,95867.72
2023-02-27T03:45:10.031Z,95869.78
2023-02-27T03:50:12.413Z,95871.06
2023-02-27T03:55:16.625Z,95874.31
2023-02-27T04:00:19.059Z,95872.97
2023-02-27T04:05:25.225Z,95877.22
2023-02-27T04:10:27.671Z,95880.47
2023-02-27T04:15:40.012Z,95880.47
2023-02-27T04:20:51.423Z,95887.25
2023-02-27T04:25:54.606Z,95878.50
2023-02-27T04:30:57.871Z,95883.09
2023-02-27T04:36:00.746Z,95891.34
2023-02-27T04:41:03.450Z,95885.28
2023-02-27T04:46:05.986Z,95884.00
2023-02-27T04:51:10.434Z,95873.16
2023-02-27T04:56:14.346Z,95878.31
2023-02-27T05:01:16.745Z,95887.84
2023-02-27T05:06:19.481Z,95879.28
2023-02-27T05:11:22.604Z,95880.69
2023-02-27T05:16:26.836Z,95887.56
2023-02-27T05:21:29.433Z,95881.41
2023-02-27T05:26:32.004Z,95888.00
2023-02-27T05:31:35.293Z,95893.25
2023-02-27T05:36:37.654Z,95889.38
2023-02-27T05:41:39.993Z,95893.63
2023-02-27T05:46:45.730Z,95896.88
2023-02-27T05:51:48.019Z,95897.44
2023-02-27T05:56:50.690Z,95893.25
2023-02-27T06:01:53.842Z,95899.50
2023-02-27T06:06:57.085Z,95896.88
2023-02-27T06:11:59.495Z,95898.78
2023-02-27T06:17:03.911Z,95909.31
2023-02-27T06:22:06.293Z,95907.88
2023-02-27T06:27:09.549Z,95905.66
2023-02-27T06:32:13.191Z,95912.19
2023-02-27T06:37:16.316Z,95918.78
2023-02-27T06:42:20.441Z,95924.13
2023-02-27T06:47:23.642Z,95918.53
2023-02-27T06:52:26.842Z,95922.06
2023-02-27T06:57:29.159Z,95926.38
2023-02-27T07:02:31.997Z,95925.22
2023-02-27T07:07:37.949Z,95922.50
2023-02-27T07:12:41.185Z,95917.94
2023-02-27T07:17:44.362Z,95925.34
2023-02-27T07:22:47.182Z,95910.75
2023-02-27T07:27:50.839Z,95920.69
2023-02-27T07:32:53.596Z,95930.34
2023-02-27T07:37:56.707Z,95931.75
2023-02-27T07:42:59.472Z,95934.47
2023-02-27T07:48:02.640Z,95932.66
2023-02-27T07:53:05.503Z,95934.28
2023-02-27T07:58:08.253Z,95947.91
2023-02-27T08:03:10.660Z,95941.41
2023-02-27T08:08:13.180Z,95948.13
2023-02-27T08:13:17.916Z,95940.31
2023-02-27T08:18:22.982Z,95948.19
2023-02-27T08:23:26.067Z,95945.06
2023-02-27T08:28:28.857Z,95947.06
2023-02-27T08:33:31.355Z,95948.22
2023-02-27T08:38:34.068Z,95962.91
2023-02-27T08:43:37.748Z,95972.41
2023-02-27T08:48:42.700Z,95971.03
2023-02-27T08:53:45.619Z,95969.66
2023-02-27T08:58:47.982Z,95972.44
2023-02-27T09:03:50.879Z,95981.00
2023-02-27T09:08:53.234Z,95984.94
2023-02-27T09:13:55.645Z,95987.81
2023-02-27T09:18:58.069Z,95990.91
2023-02-27T09:24:07.414Z,96009.03
2023-02-27T09:29:19.825Z,95985.56
2023-02-27T09:34:22.583Z,95993.78
2023-02-27T09:39:25.276Z,96009.19
2023-02-27T09:44:43.494Z,96014.16
2023-02-27T09:49:47.388Z,96026.22
2023-02-27T09:54:49.708Z,96022.44
2023-02-27T09:59:52.871Z,96033.91
2023-02-27T10:04:55.712Z,96037.63
2023-02-27T10:09:58.113Z,96026.91
2023-02-27T10:15:00.688Z,96038.09
2023-02-27T10:20:04.869Z,96047.28
2023-02-27T10:25:18.082Z,96049.06
2023-02-27T10:30:32.884Z,96048.91
2023-02-27T10:35:36.843Z,96046.38
2023-02-27T10:40:39.211Z,96053.88
2023-02-27T10:45:42.205Z,96055.75
2023-02-27T10:50:44.525Z,96038.88
2023-02-27T10:55:46.883Z,96046.41
2023-02-27T11:00:49.420Z,96045.75
2023-02-27T11:05:52.694Z,96036.41
2023-02-27T11:10:56.711Z,96041.13
2023-02-27T11:15:59.823Z,96050.88
2023-02-27T11:21:03.895Z,96044.63
2023-02-27T11:26:07.313Z,96037.56
2023-02-27T11:31:10.019Z,96039.81
2023-02-27T11:36:12.395Z,96049.03
2023-02-27T11:41:14.749Z,96031.50
2023-02-27T11:46:46.103Z,96033.47
2023-02-27T11:51:39.770Z,96036.13
2023-02-27T11:56:42.158Z,96037.53
2023-02-27T12:01:44.732Z,96028.25
2023-02-27T12:06:47.060Z,96032.78
2023-02-27T12:11:50.266Z,96023.13
2023-02-27T12:16:54.033Z,96022.69
2023-02-27T12:21:56.416Z,96009.75
2023-02-27T12:26:58.823Z,96029.34
2023-02-27T12:32:02.101Z,96025.38
2023-02-27T12:37:05.467Z,96036.91
2023-02-27T12:42:08.736Z,96025.63
2023-02-27T12:47:11.138Z,96037.25
2023-02-27T12:52:13.608Z,96032.41
2023-02-27T12:57:15.908Z,96033.81
2023-02-27T13:02:18.656Z,96034.31
2023-02-27T13:07:21.443Z,96047.72
2023-02-27T13:12:25.612Z,96033.31
2023-02-27T13:17:28.305Z,96037.31
2023-02-27T13:22:30.791Z,96039.66
2023-02-27T13:27:34.086Z,96037.66
2023-02-27T13:32:44.228Z,96032.09
2023-02-27T13:37:47.055Z,96035.53
2023-02-27T13:42:49.360Z,96021.31
2023-02-27T13:47:51.639Z,96032.31
2023-02-27T13:52:54.826Z,96034.19
2023-02-27T13:57:57.131Z,96030.28
2023-02-27T14:03:00.846Z,96023.44
2023-02-27T14:08:04.144Z,96027.88
2023-02-27T14:13:06.562Z,96030.53
2023-02-27T14:18:15.917Z,96047.00
2023-02-27T14:23:20.669Z,96042.03
2023-02-27T14:28:23.075Z,96031.78
2023-02-27T14:33:39.278Z,96040.94
2023-02-27T14:38:43.135Z,96030.31
2023-02-27T14:43:56.796Z,96041.88
2023-02-27T14:48:59.338Z,96030.84
2023-02-27T14:54:02.110Z,96039.31
2023-02-27T14:59:05.298Z,96039.94
2023-02-27T15:04:08.675Z,96040.25
2023-02-27T15:09:21.246Z,96049.81
2023-02-27T15:14:25.396Z,96045.22
2023-02-27T15:19:28.556Z,96054.84
2023-02-27T15:24:43.842Z,96057.97
2023-02-27T15:29:51.431Z,96053.59
2023-02-27T15:34:53.769Z,96063.00
2023-02-27T15:39:56.107Z,96063.81
2023-02-27T15:44:59.318Z,96063.88
2023-02-27T15:50:02.485Z,96059.00
2023-02-27T15:55:05.156Z,96070.91
2023-02-27T16:00:07.583Z,96070.91
2023-02-27T16:05:10.728Z,96075.53
2023-02-27T16:10:13.037Z,96096.91
2023-02-27T16:15:17.409Z,96093.88
2023-02-27T16:20:26.098Z,96091.72
2023-02-27T16:25:28.690Z,96100.03
2023-02-27T16:30:31.036Z,96107.31
2023-02-27T16:35:35.322Z,96112.19
2023-02-27T16:40:38.226Z,96113.00
2023-02-27T16:45:46.242Z,96124.59
2023-02-27T16:50:48.796Z,96131.22
2023-02-27T16:55:51.092Z,96139.06
2023-02-27T17:00:53.444Z,96139.25
2023-02-27T17:05:57.669Z,96139.88
2023-02-27T17:11:00.378Z,96156.78
2023-02-27T17:16:04.961Z,96154.78
2023-02-27T17:21:07.291Z,96157.69
2023-02-27T17:26:09.861Z,96163.22
2023-02-27T17:31:12.330Z,96170.03
2023-02-27T17:36:15.104Z,96179.59
2023-02-27T17:41:17.852Z,96186.66
2023-02-27T17:46:30.684Z,96193.56
2023-02-27T17:51:35.623Z,96198.94
2023-02-27T17:56:37.948Z,96209.44
2023-02-27T18:01:40.800Z,96215.44
2023-02-27T18:06:44.475Z,96221.41
2023-02-27T18:11:47.122Z,96220.69
2023-02-27T18:16:50.466Z,96223.66
2023-02-27T18:22:03.092Z,96222.41
2023-02-27T18:27:05.468Z,96210.41
2023-02-27T18:32:07.902Z,96218.97
2023-02-27T18:37:12.174Z,96220.66
2023-02-27T18:42:15.959Z,96221.19
2023-02-27T18:47:18.333Z,96228.06
2023-02-27T18:52:22.350Z,96234.66
2023-02-27T18:57:24.922Z,96242.88
2023-02-27T19:02:27.602Z,96247.22
2023-02-27T19:07:30.381Z,96254.09
2023-02-27T19:12:32.755Z,96256.34
2023-02-27T19:17:35.520Z,96245.03
2023-02-27T19:22:38.524Z,96255.69
2023-02-27T19:27:41.325Z,96257.63
2023-02-27T19:32:43.950Z,96248.28
2023-02-27T19:37:47.911Z,96236.06
2023-02-27T19:42:50.772Z,96242.97
2023-02-27T19:47:53.743Z,96247.91
2023-02-27T19:52:56.316Z,96240.22
2023-02-27T19:57:58.736Z,96235.31
2023-02-27T20:03:10.156Z,96237.78
2023-02-27T20:08:13.119Z,96234.25
2023-02-27T20:13:16.089Z,96234.25
2023-02-27T20:18:18.616Z,96221.41
2023-02-27T20:23:23.185Z,96228.94
2023-02-27T20:28:27.248Z,96224.22
2023-02-27T20:33:29.991Z,96226.66
2023-02-27T20:38:33.180Z,96224.47
2023-02-27T20:43:35.579Z,96217.88
2023-02-27T20:48:37.933Z,96210.28
2023-02-27T20:53:40.449Z,96210.28
2023-02-27T20:58:42.969Z,96208.38
2023-02-27T21:03:50.754Z,96204.44
2023-02-27T21:08:54.801Z,96193.41
2023-02-27T21:13:58.421Z,96204.44
2023-02-27T21:19:03.904Z,96193.06
2023-02-27T21:24:07.405Z,96192.44
2023-02-27T21:29:10.338Z,96195.59
2023-02-27T21:34:23.117Z,96198.41
2023-02-27T21:39:26.388Z,96203.19
2023-02-27T21:44:30.036Z,96197.59
2023-02-27T21:49:33.446Z,96192.78
2023-02-27T21:54:37.015Z,96194.41
2023-02-27T21:59:49.599Z,96184.56
2023-02-27T22:04:52.169Z,96180.38
2023-02-27T22:10:04.556Z,96174.78
2023-02-27T22:15:07.187Z,96168.72
2023-02-27T22:20:09.705Z,96165.44
2023-02-27T22:25:12.170Z,96156.47
2023-02-27T22:30:14.640Z,96162.06
2023-02-27T22:35:17.889Z,96157.88
2023-02-27T22:40:21.488Z,96146.56
2023-02-27T22:45:24.130Z,96146.56
2023-02-27T22:50:31.561Z,96153.13
2023-02-27T22:55:35.891Z,96137.75
2023-02-27T23:00:38.952Z,96133.44
2023-02-27T23:05:44.466Z,96125.31
2023-02-27T23:10:47.285Z,96124.00
2023-02-27T23:15:50.219Z,96129.44
2023-02-27T23:20:53.040Z,96133.72
2023-02-27T23:25:55.488Z,96133.91
2023-02-27T23:30:59.416Z,96134.00
2023-02-27T23:36:02.033Z,96126.94
2023-02-27T23:41:05.558Z,96133.22
2023-02-27T23:46:08.117Z,96121.91
2023-02-27T23:51:10.578Z,96120.66
2023-02-27T23:56:13.698Z,96124.81
